Terminal Aerodrome Forecast
Issued by NWS Cleveland, OH

Home | Current Version | Previous Version | Text Only | Print | Product List | Glossary On
Versions: 1 2 3 4 5 6 7 8 9 10 11 12 13 14 15 16 17 18 19
383
FTUS41 KCLE 141733
TAFCAK
TAF
KCAK 141733Z 1418/1518 14008KT P6SM FEW035 OVC250
     FM142300 12010KT P6SM FEW025 OVC080
     FM150400 15010KT 5SM -SN SCT015 OVC025
      TEMPO 1506/1510 1 1/2SM -SN BKN006 OVC012
     FM151600 18012KT P6SM VCSH SCT008 OVC015=

USA.gov is the U.S. government's official web portal to all federal, state and local government web resources and services.